Time;durP1;ratioP1;P1;durP2;ratioP2;P2;SDS_P1;SDS_P2;PMS_P1;PMS_P2;Temp;Humidity;BMP_temperature;BMP_pressure;BME280_temperature;BME280_humidity;BME280_pressure;Samples;Min_cycle;Max_cycle;Signal;HPM_P1;HPM_P2
2024/01/29 00:00:49;;;;;;;4.18;2.00;;;;;;;;;;5099235;28;42023;-66
2024/01/29 00:03:17;;;;;;;5.75;2.28;;;;;;;;;;5110251;27;41311;-67
2024/01/29 00:05:45;;;;;;;7.72;2.47;;;;;;;;;;5099381;27;40822;-67
2024/01/29 00:08:13;;;;;;;6.07;2.92;;;;;;;;;;5102648;27;42987;-67
2024/01/29 00:10:41;;;;;;;4.88;2.70;;;;;;;;;;5098192;28;39936;-67
2024/01/29 00:13:09;;;;;;;4.68;2.60;;;;;;;;;;5108710;27;42344;-66
2024/01/29 00:15:37;;;;;;;5.03;2.35;;;;;;;;;;5109378;27;39784;-67
2024/01/29 00:18:06;;;;;;;5.80;2.40;;;;;;;;;;5109537;27;42075;-67
2024/01/29 00:20:34;;;;;;;4.35;2.00;;;;;;;;;;5101681;27;42684;-67
2024/01/29 00:23:02;;;;;;;2.88;2.25;;;;;;;;;;5097522;27;40886;-67
2024/01/29 00:25:30;;;;;;;6.32;2.63;;;;;;;;;;5109421;27;41394;-67
2024/01/29 00:27:58;;;;;;;3.40;2.33;;;;;;;;;;5108676;27;42625;-67
2024/01/29 00:30:27;;;;;;;5.53;2.10;;;;;;;;;;5108169;27;41962;-67
2024/01/29 00:32:55;;;;;;;3.70;2.22;;;;;;;;;;5110109;27;42537;-67
2024/01/29 00:35:24;;;;;;;5.22;2.40;;;;;;;;;;5108435;27;40459;-67
2024/01/29 00:37:52;;;;;;;3.15;1.90;;;;;;;;;;5095926;28;41052;-67
2024/01/29 00:40:20;;;;;;;6.05;2.40;;;;;;;;;;5107903;27;41284;-67
2024/01/29 00:42:48;;;;;;;3.80;2.03;;;;;;;;;;5107002;27;39894;-67
2024/01/29 00:45:16;;;;;;;5.13;2.42;;;;;;;;;;5106793;27;43257;-67
2024/01/29 00:47:44;;;;;;;8.00;2.13;;;;;;;;;;5107773;27;42576;-67
2024/01/29 00:50:12;;;;;;;3.35;1.80;;;;;;;;;;5106449;27;40199;-67
2024/01/29 00:52:41;;;;;;;4.00;2.08;;;;;;;;;;5101735;27;41392;-67
2024/01/29 00:55:09;;;;;;;3.75;2.47;;;;;;;;;;5095214;28;41612;-67
2024/01/29 00:57:37;;;;;;;4.15;2.30;;;;;;;;;;5107873;27;41439;-66
2024/01/29 01:00:06;;;;;;;3.80;2.30;;;;;;;;;;5096276;28;41997;-67
2024/01/29 01:02:34;;;;;;;2.33;1.95;;;;;;;;;;5108475;27;41019;-67
2024/01/29 01:05:02;;;;;;;4.72;2.10;;;;;;;;;;5107544;27;42571;-67
2024/01/29 01:07:30;;;;;;;5.35;2.40;;;;;;;;;;5109981;27;41545;-67
2024/01/29 01:10:00;;;;;;;2.35;1.88;;;;;;;;;;5107229;27;41480;-67
2024/01/29 01:12:28;;;;;;;2.50;1.83;;;;;;;;;;5109075;27;42502;-67
2024/01/29 01:14:56;;;;;;;3.17;2.13;;;;;;;;;;5094276;27;43045;-67
2024/01/29 01:17:24;;;;;;;3.85;2.10;;;;;;;;;;5108180;27;41687;-67
2024/01/29 01:19:52;;;;;;;3.75;1.90;;;;;;;;;;5108386;27;41985;-67
2024/01/29 01:22:20;;;;;;;2.88;1.80;;;;;;;;;;5095454;27;40335;-67
2024/01/29 01:24:48;;;;;;;3.10;2.30;;;;;;;;;;5107226;27;41530;-67
2024/01/29 01:27:17;;;;;;;3.47;1.88;;;;;;;;;;5108662;27;43038;-67
2024/01/29 01:29:45;;;;;;;3.53;2.25;;;;;;;;;;5098764;27;39865;-66
2024/01/29 01:32:13;;;;;;;3.95;2.25;;;;;;;;;;5095045;27;41079;-67
2024/01/29 01:34:41;;;;;;;3.08;2.22;;;;;;;;;;5107671;27;42282;-67
2024/01/29 01:37:09;;;;;;;3.15;2.45;;;;;;;;;;5108386;27;40123;-67
2024/01/29 01:39:37;;;;;;;2.53;2.05;;;;;;;;;;5107369;27;43028;-67
2024/01/29 01:42:05;;;;;;;3.53;2.20;;;;;;;;;;5108370;27;40562;-67
2024/01/29 01:44:35;;;;;;;6.25;2.33;;;;;;;;;;5108194;27;41698;-67
2024/01/29 01:47:03;;;;;;;3.92;2.20;;;;;;;;;;5107139;27;42201;-67
2024/01/29 01:49:30;;;;;;;3.35;1.90;;;;;;;;;;5108698;27;39975;-67
2024/01/29 01:51:59;;;;;;;3.38;2.15;;;;;;;;;;5107413;27;41730;-67
2024/01/29 01:54:27;;;;;;;3.67;2.17;;;;;;;;;;5092582;27;43066;-67
2024/01/29 01:56:55;;;;;;;3.17;2.28;;;;;;;;;;5108499;27;39716;-67
2024/01/29 01:59:24;;;;;;;3.03;2.00;;;;;;;;;;5095406;27;42575;-66
2024/01/29 02:01:53;;;;;;;3.42;2.33;;;;;;;;;;5101842;27;40806;-66
2024/01/29 02:04:21;;;;;;;4.15;2.28;;;;;;;;;;5093681;28;43036;-67
2024/01/29 02:06:51;;;;;;;3.20;2.17;;;;;;;;;;5106643;27;41802;-67
2024/01/29 02:09:20;;;;;;;3.63;1.90;;;;;;;;;;5103253;27;38793;-67
2024/01/29 02:11:47;;;;;;;3.95;2.00;;;;;;;;;;5106155;27;41286;-67
2024/01/29 02:14:16;;;;;;;2.72;2.17;;;;;;;;;;5104801;27;43645;-67
2024/01/29 02:16:44;;;;;;;4.80;1.90;;;;;;;;;;5106060;27;40284;-67
2024/01/29 02:19:14;;;;;;;2.22;2.00;;;;;;;;;;5105922;27;42168;-67
2024/01/29 02:21:42;;;;;;;3.13;2.17;;;;;;;;;;5090758;28;41397;-67
2024/01/29 02:24:11;;;;;;;3.22;2.10;;;;;;;;;;5106497;27;41521;-67
2024/01/29 02:26:39;;;;;;;1.75;1.60;;;;;;;;;;5105100;27;43239;-67
2024/01/29 02:29:08;;;;;;;2.33;1.73;;;;;;;;;;5106584;27;40447;-67
2024/01/29 02:31:36;;;;;;;2.13;1.83;;;;;;;;;;5103390;27;42525;-67
2024/01/29 02:34:05;;;;;;;3.50;2.00;;;;;;;;;;5090774;28;42408;-67
2024/01/29 02:36:33;;;;;;;2.83;2.03;;;;;;;;;;5093019;27;41334;-66
2024/01/29 02:39:01;;;;;;;3.13;2.00;;;;;;;;;;5095519;28;42560;-68
2024/01/29 02:41:30;;;;;;;2.85;1.88;;;;;;;;;;5106900;27;43144;-67
2024/01/29 02:44:02;;;;;;;3.40;2.20;;;;;;;;;;5106589;27;40058;-67
2024/01/29 02:46:30;;;;;;;3.97;2.20;;;;;;;;;;5107693;27;41797;-67
2024/01/29 02:48:58;;;;;;;3.03;2.00;;;;;;;;;;5106397;27;40350;-67
2024/01/29 02:51:26;;;;;;;3.38;2.40;;;;;;;;;;5107063;27;41444;-66
2024/01/29 02:53:54;;;;;;;2.17;1.70;;;;;;;;;;5106539;27;42665;-66
2024/01/29 02:56:22;;;;;;;3.00;2.08;;;;;;;;;;5105631;27;40278;-65
2024/01/29 02:58:51;;;;;;;2.05;1.60;;;;;;;;;;5104725;27;41287;-66
2024/01/29 03:01:19;;;;;;;3.28;2.25;;;;;;;;;;5102302;27;41923;-65
2024/01/29 03:03:48;;;;;;;3.47;2.20;;;;;;;;;;5094477;27;41069;-66
2024/01/29 03:06:16;;;;;;;2.83;2.13;;;;;;;;;;5104908;28;41371;-66
2024/01/29 03:08:45;;;;;;;3.05;2.03;;;;;;;;;;5107070;27;39894;-66
2024/01/29 03:11:13;;;;;;;2.50;2.20;;;;;;;;;;5105787;27;41602;-66
2024/01/29 03:13:41;;;;;;;2.60;1.88;;;;;;;;;;5106431;27;42701;-66
2024/01/29 03:16:10;;;;;;;4.30;2.05;;;;;;;;;;5098625;27;41374;-65
2024/01/29 03:18:38;;;;;;;2.20;1.80;;;;;;;;;;5106154;27;41189;-66
2024/01/29 03:21:06;;;;;;;2.53;1.90;;;;;;;;;;5106117;27;42747;-66
2024/01/29 03:23:34;;;;;;;2.17;1.90;;;;;;;;;;5106546;27;39871;-66
2024/01/29 03:26:02;;;;;;;2.90;2.15;;;;;;;;;;5101198;27;42630;-66
2024/01/29 03:28:30;;;;;;;4.55;2.00;;;;;;;;;;5099360;27;39416;-66
2024/01/29 03:30:58;;;;;;;3.42;2.08;;;;;;;;;;5104964;27;42414;-65
2024/01/29 03:33:27;;;;;;;2.30;1.80;;;;;;;;;;5107789;27;41639;-66
2024/01/29 03:35:56;;;;;;;2.28;1.70;;;;;;;;;;5109348;27;41378;-66
2024/01/29 03:38:24;;;;;;;2.42;2.22;;;;;;;;;;5100279;27;42693;-66
2024/01/29 03:40:51;;;;;;;2.67;2.00;;;;;;;;;;5104958;27;41742;-66
2024/01/29 03:43:20;;;;;;;2.78;1.80;;;;;;;;;;5110470;27;40823;-66
2024/01/29 03:45:48;;;;;;;3.47;1.95;;;;;;;;;;5108116;27;41759;-66
2024/01/29 03:48:16;;;;;;;2.88;2.00;;;;;;;;;;5110349;27;42235;-66
2024/01/29 03:50:45;;;;;;;3.67;2.00;;;;;;;;;;5096667;27;41418;-66
2024/01/29 03:53:13;;;;;;;2.33;1.90;;;;;;;;;;5100601;28;40835;-66
2024/01/29 03:55:41;;;;;;;3.47;2.00;;;;;;;;;;5098944;27;39788;-66
2024/01/29 03:58:09;;;;;;;1.90;1.67;;;;;;;;;;5107564;27;41192;-66
2024/01/29 04:00:38;;;;;;;2.17;1.98;;;;;;;;;;5106897;27;41494;-66
2024/01/29 04:03:07;;;;;;;2.40;1.60;;;;;;;;;;5107978;27;40498;-66
2024/01/29 04:05:35;;;;;;;3.58;2.00;;;;;;;;;;5100311;27;41719;-66
2024/01/29 04:08:04;;;;;;;2.72;2.08;;;;;;;;;;5104457;28;43047;-66
2024/01/29 04:10:32;;;;;;;3.08;2.20;;;;;;;;;;5095972;28;41289;-66
2024/01/29 04:13:00;;;;;;;2.53;2.28;;;;;;;;;;5102549;27;41929;-66
2024/01/29 04:15:28;;;;;;;2.67;2.00;;;;;;;;;;5110319;27;39877;-66
2024/01/29 04:17:56;;;;;;;2.83;1.60;;;;;;;;;;5108027;27;41310;-66
2024/01/29 04:20:24;;;;;;;2.88;2.10;;;;;;;;;;5109296;27;41997;-66
2024/01/29 04:22:52;;;;;;;2.65;1.88;;;;;;;;;;5109232;27;40224;-66
2024/01/29 04:25:21;;;;;;;2.42;1.98;;;;;;;;;;5110099;27;42260;-66
2024/01/29 04:27:51;;;;;;;4.70;2.10;;;;;;;;;;5107290;27;42711;-66
2024/01/29 04:30:19;;;;;;;2.53;1.83;;;;;;;;;;5109301;27;40739;-66
2024/01/29 04:32:47;;;;;;;2.03;1.70;;;;;;;;;;5108730;27;42614;-66
2024/01/29 04:35:15;;;;;;;2.80;1.67;;;;;;;;;;5109108;27;40848;-66
2024/01/29 04:37:43;;;;;;;1.92;1.70;;;;;;;;;;5108722;27;42216;-66
2024/01/29 04:40:12;;;;;;;2.13;1.90;;;;;;;;;;5103172;27;41795;-66
2024/01/29 04:42:41;;;;;;;2.05;1.80;;;;;;;;;;5101590;27;39852;-66
2024/01/29 04:45:09;;;;;;;4.22;2.00;;;;;;;;;;5105297;27;41532;-66
2024/01/29 04:47:37;;;;;;;2.20;1.80;;;;;;;;;;5101493;28;42100;-65
2024/01/29 04:50:06;;;;;;;2.95;1.92;;;;;;;;;;5108600;27;39922;-66
2024/01/29 04:52:34;;;;;;;2.20;2.00;;;;;;;;;;5108668;27;41506;-66
2024/01/29 04:55:02;;;;;;;2.78;2.20;;;;;;;;;;5093507;27;43165;-66
2024/01/29 04:57:32;;;;;;;3.55;1.90;;;;;;;;;;5109848;27;41750;-66
2024/01/29 05:00:03;;;;;;;3.97;2.03;;;;;;;;;;5105894;27;42005;-66
2024/01/29 05:02:31;;;;;;;2.67;2.05;;;;;;;;;;5095036;28;40415;-65
2024/01/29 05:04:59;;;;;;;1.95;1.63;;;;;;;;;;5107593;27;40952;-65
2024/01/29 05:07:27;;;;;;;3.33;2.17;;;;;;;;;;5107963;27;41697;-65
2024/01/29 05:09:55;;;;;;;1.83;1.65;;;;;;;;;;5107632;27;40614;-66
2024/01/29 05:12:23;;;;;;;2.70;1.70;;;;;;;;;;5108890;27;42582;-66
2024/01/29 05:14:51;;;;;;;2.20;1.92;;;;;;;;;;5108571;27;42613;-66
2024/01/29 05:17:21;;;;;;;3.58;2.40;;;;;;;;;;5107667;27;40540;-65
2024/01/29 05:19:49;;;;;;;2.70;1.98;;;;;;;;;;5108393;27;41906;-66
2024/01/29 05:22:17;;;;;;;2.92;1.98;;;;;;;;;;5108798;27;40896;-65
2024/01/29 05:24:45;;;;;;;2.70;1.88;;;;;;;;;;5107192;27;41811;-65
2024/01/29 05:27:13;;;;;;;3.55;2.40;;;;;;;;;;5108499;27;42260;-66
2024/01/29 05:29:41;;;;;;;3.75;1.67;;;;;;;;;;5107454;27;40125;-64
2024/01/29 05:32:09;;;;;;;2.53;1.95;;;;;;;;;;5107789;27;41643;-66
2024/01/29 05:34:38;;;;;;;2.28;1.90;;;;;;;;;;5090782;27;42063;-66
2024/01/29 05:37:06;;;;;;;3.90;2.20;;;;;;;;;;5093571;28;41850;-66
2024/01/29 05:39:34;;;;;;;3.63;2.28;;;;;;;;;;5107559;27;41874;-66
2024/01/29 05:42:02;;;;;;;2.63;1.95;;;;;;;;;;5108026;27;39625;-66
2024/01/29 05:44:30;;;;;;;2.10;1.77;;;;;;;;;;5093120;27;41255;-66
2024/01/29 05:46:58;;;;;;;2.03;1.67;;;;;;;;;;5096143;28;41549;-66
2024/01/29 05:49:26;;;;;;;3.20;2.22;;;;;;;;;;5101228;28;40133;-66
2024/01/29 05:51:56;;;;;;;3.92;2.50;;;;;;;;;;5106893;27;41814;-65
2024/01/29 05:54:24;;;;;;;2.95;2.00;;;;;;;;;;5096138;27;42733;-66
2024/01/29 05:56:52;;;;;;;2.65;2.10;;;;;;;;;;5106926;27;40016;-66
2024/01/29 05:59:20;;;;;;;2.88;2.13;;;;;;;;;;5107286;27;41686;-66
2024/01/29 06:01:48;;;;;;;3.00;1.70;;;;;;;;;;5107853;27;40220;-66
2024/01/29 06:04:16;;;;;;;2.00;1.80;;;;;;;;;;5108098;27;43375;-66
2024/01/29 06:06:44;;;;;;;2.90;2.08;;;;;;;;;;5104085;27;42471;-66
2024/01/29 06:09:15;;;;;;;3.05;2.00;;;;;;;;;;5096921;28;40341;-66
2024/01/29 06:11:43;;;;;;;2.35;1.92;;;;;;;;;;5107776;27;41594;-66
2024/01/29 06:14:11;;;;;;;3.60;1.90;;;;;;;;;;5106648;27;42646;-66
2024/01/29 06:16:39;;;;;;;2.67;2.20;;;;;;;;;;5099686;27;40472;-66
2024/01/29 06:19:09;;;;;;;2.63;2.17;;;;;;;;;;5101278;28;40993;-66
2024/01/29 06:21:38;;;;;;;3.08;1.88;;;;;;;;;;5108720;27;41917;-65
2024/01/29 06:24:06;;;;;;;2.25;1.92;;;;;;;;;;5107876;27;42187;-67
2024/01/29 06:26:35;;;;;;;2.55;2.22;;;;;;;;;;5107143;27;41676;-66
2024/01/29 06:29:03;;;;;;;3.28;2.13;;;;;;;;;;5107850;27;40549;-66
2024/01/29 06:31:31;;;;;;;2.42;1.80;;;;;;;;;;5106770;27;41135;-65
2024/01/29 06:33:59;;;;;;;2.45;1.90;;;;;;;;;;5093495;27;41676;-66
2024/01/29 06:36:27;;;;;;;3.78;1.77;;;;;;;;;;5105589;28;40293;-65
2024/01/29 06:38:55;;;;;;;3.67;2.05;;;;;;;;;;5107382;27;42218;-66
2024/01/29 06:41:24;;;;;;;2.58;2.13;;;;;;;;;;5091808;27;41566;-66
2024/01/29 06:43:53;;;;;;;3.03;1.85;;;;;;;;;;5108164;27;40337;-66
2024/01/29 06:46:21;;;;;;;2.25;2.00;;;;;;;;;;5106443;27;42270;-66
2024/01/29 06:48:49;;;;;;;2.40;2.20;;;;;;;;;;5097611;28;40426;-66
2024/01/29 06:51:17;;;;;;;2.00;1.42;;;;;;;;;;5102426;27;41640;-66
2024/01/29 06:53:46;;;;;;;2.20;2.00;;;;;;;;;;5092983;28;41800;-66
2024/01/29 06:56:14;;;;;;;2.97;1.80;;;;;;;;;;5106067;27;39769;-66
2024/01/29 06:58:42;;;;;;;2.97;2.00;;;;;;;;;;5107289;27;41237;-66
2024/01/29 07:01:11;;;;;;;2.47;2.00;;;;;;;;;;5101862;27;42747;-66
2024/01/29 07:03:39;;;;;;;2.53;1.80;;;;;;;;;;5103311;27;41039;-65
2024/01/29 07:06:07;;;;;;;2.83;1.60;;;;;;;;;;5106154;27;39976;-66
2024/01/29 07:08:35;;;;;;;1.92;1.60;;;;;;;;;;5093208;27;40091;-65
2024/01/29 07:11:03;;;;;;;2.35;1.83;;;;;;;;;;5096007;27;42373;-66
2024/01/29 07:13:31;;;;;;;3.67;1.80;;;;;;;;;;5101001;28;43101;-66
2024/01/29 07:15:59;;;;;;;3.45;1.85;;;;;;;;;;5095445;28;39793;-66
2024/01/29 07:18:29;;;;;;;2.85;2.03;;;;;;;;;;5097019;28;41501;-66
2024/01/29 07:20:57;;;;;;;2.50;2.05;;;;;;;;;;5090682;27;42187;-66
2024/01/29 07:23:25;;;;;;;2.58;2.13;;;;;;;;;;5098182;27;42000;-66
2024/01/29 07:25:53;;;;;;;3.92;2.15;;;;;;;;;;5097056;27;41664;-66
2024/01/29 07:28:21;;;;;;;2.83;2.10;;;;;;;;;;5107318;27;33071;-65
2024/01/29 07:30:49;;;;;;;3.00;2.10;;;;;;;;;;5103893;27;41254;-66
2024/01/29 07:33:17;;;;;;;2.47;1.92;;;;;;;;;;5099617;27;41577;-65
2024/01/29 07:35:48;;;;;;;2.80;2.28;;;;;;;;;;5097861;27;41383;-66
2024/01/29 07:38:16;;;;;;;3.45;2.00;;;;;;;;;;5102622;27;42291;-66
2024/01/29 07:40:44;;;;;;;3.58;2.28;;;;;;;;;;5103078;27;42006;-65
2024/01/29 07:43:12;;;;;;;5.10;2.15;;;;;;;;;;5102578;28;40576;-65
2024/01/29 07:45:40;;;;;;;4.30;2.13;;;;;;;;;;5101398;27;41661;-66
2024/01/29 07:48:09;;;;;;;2.85;1.90;;;;;;;;;;5093010;28;42140;-66
2024/01/29 07:50:38;;;;;;;4.45;2.00;;;;;;;;;;5095704;27;41759;-66
2024/01/29 07:53:08;;;;;;;2.78;2.30;;;;;;;;;;5106844;27;41681;-65
2024/01/29 07:55:37;;;;;;;4.03;2.05;;;;;;;;;;5094227;27;40278;-65
2024/01/29 07:58:05;;;;;;;3.65;2.22;;;;;;;;;;5091731;27;41560;-67
2024/01/29 08:00:33;;;;;;;3.75;2.35;;;;;;;;;;5101820;28;41991;-68
2024/01/29 08:03:01;;;;;;;3.45;2.20;;;;;;;;;;5093444;27;40528;-79
2024/01/29 08:05:29;;;;;;;4.05;2.45;;;;;;;;;;5096404;28;41673;-73
2024/01/29 08:07:57;;;;;;;6.72;2.65;;;;;;;;;;5102043;27;42648;-72
2024/01/29 08:10:27;;;;;;;8.13;2.53;;;;;;;;;;5100104;27;40927;-74
2024/01/29 08:12:55;;;;;;;7.93;2.60;;;;;;;;;;5099210;27;43186;-66
2024/01/29 08:15:23;;;;;;;4.22;1.98;;;;;;;;;;5090040;27;40013;-73
2024/01/29 08:17:51;;;;;;;18.13;2.42;;;;;;;;;;5100725;28;41643;-73
2024/01/29 08:20:20;;;;;;;8.80;2.50;;;;;;;;;;5089613;27;42669;-70
2024/01/29 08:22:48;;;;;;;3.53;2.22;;;;;;;;;;5095025;27;40769;-70
2024/01/29 08:25:16;;;;;;;5.90;2.67;;;;;;;;;;5109492;27;41367;-75
2024/01/29 08:27:45;;;;;;;10.27;2.20;;;;;;;;;;5108642;27;42610;-72
2024/01/29 08:30:13;;;;;;;4.25;2.38;;;;;;;;;;5096227;27;40427;-72
2024/01/29 08:32:42;;;;;;;12.23;2.60;;;;;;;;;;5094683;28;40353;-73
2024/01/29 08:35:10;;;;;;;12.52;2.90;;;;;;;;;;5108015;28;42128;-73
2024/01/29 08:37:38;;;;;;;8.00;2.88;;;;;;;;;;5098632;27;41571;-71
2024/01/29 08:40:07;;;;;;;5.10;2.45;;;;;;;;;;5101788;27;41943;-71
2024/01/29 08:42:36;;;;;;;3.58;2.38;;;;;;;;;;5092389;27;41365;-70
2024/01/29 08:45:06;;;;;;;8.25;2.47;;;;;;;;;;5099984;27;42325;-70
2024/01/29 08:47:34;;;;;;;9.63;2.40;;;;;;;;;;5106396;27;42070;-71
2024/01/29 08:50:02;;;;;;;14.43;2.95;;;;;;;;;;5103376;27;40183;-69
2024/01/29 08:52:30;;;;;;;6.72;2.50;;;;;;;;;;5107828;28;41678;-78
2024/01/29 08:54:58;;;;;;;3.75;2.63;;;;;;;;;;5098267;27;42081;-72
2024/01/29 08:57:26;;;;;;;4.28;2.75;;;;;;;;;;5104824;27;41403;-75
2024/01/29 08:59:54;;;;;;;11.10;2.63;;;;;;;;;;5093725;28;43174;-75
2024/01/29 09:02:27;;;;;;;8.07;2.70;;;;;;;;;;5101055;27;41621;-69
2024/01/29 09:04:55;;;;;;;7.18;2.92;;;;;;;;;;5103250;27;41063;-71
2024/01/29 09:07:24;;;;;;;8.50;2.70;;;;;;;;;;5089365;27;42085;-70
2024/01/29 09:09:52;;;;;;;8.18;2.28;;;;;;;;;;5101605;27;40895;-70
2024/01/29 09:12:20;;;;;;;8.50;2.63;;;;;;;;;;5109045;27;41157;-70
2024/01/29 09:14:48;;;;;;;6.30;2.70;;;;;;;;;;5108161;27;42281;-70
2024/01/29 09:17:15;;;;;;;4.95;2.78;;;;;;;;;;5107729;27;39634;-71
2024/01/29 09:19:45;;;;;;;10.43;3.17;;;;;;;;;;5092578;28;42750;-70
2024/01/29 09:22:13;;;;;;;5.13;3.22;;;;;;;;;;5101736;27;40522;-73
2024/01/29 09:24:41;;;;;;;8.07;2.60;;;;;;;;;;5101589;27;42322;-70
2024/01/29 09:27:10;;;;;;;7.65;3.10;;;;;;;;;;5095718;27;42612;-71
2024/01/29 09:29:38;;;;;;;6.32;3.00;;;;;;;;;;5106205;27;39888;-73
2024/01/29 09:32:06;;;;;;;8.20;3.15;;;;;;;;;;5107988;27;41921;-75
2024/01/29 09:34:34;;;;;;;4.32;2.42;;;;;;;;;;5108103;27;42111;-70
2024/01/29 09:37:04;;;;;;;5.45;2.63;;;;;;;;;;5096642;27;40131;-75
2024/01/29 09:39:32;;;;;;;4.75;2.47;;;;;;;;;;5103636;28;41414;-71
2024/01/29 09:42:02;;;;;;;6.75;2.50;;;;;;;;;;5090472;27;40106;-72
2024/01/29 09:44:32;;;;;;;5.05;2.72;;;;;;;;;;5103076;28;41921;-70
2024/01/29 09:47:00;;;;;;;5.28;2.45;;;;;;;;;;5093422;27;41863;-70
2024/01/29 09:49:28;;;;;;;5.97;2.95;;;;;;;;;;5097589;28;40041;-71
2024/01/29 09:51:56;;;;;;;8.27;2.70;;;;;;;;;;5096612;28;43272;-72
2024/01/29 09:54:26;;;;;;;7.18;2.50;;;;;;;;;;5106818;27;41695;-71
2024/01/29 09:56:56;;;;;;;6.95;2.55;;;;;;;;;;5101551;27;40962;-73
2024/01/29 09:59:24;;;;;;;6.93;2.60;;;;;;;;;;5096958;28;41275;-73
2024/01/29 10:01:52;;;;;;;8.30;4.22;;;;;;;;;;5106084;28;39288;-74
2024/01/29 10:04:21;;;;;;;12.50;3.40;;;;;;;;;;5107451;27;42674;-76
2024/01/29 10:06:50;;;;;;;4.80;2.53;;;;;;;;;;5108019;27;42134;-73
2024/01/29 10:09:18;;;;;;;5.43;2.60;;;;;;;;;;5107938;27;41304;-72
2024/01/29 10:11:47;;;;;;;8.00;3.30;;;;;;;;;;5103889;28;42508;-74
2024/01/29 10:14:15;;;;;;;6.60;2.67;;;;;;;;;;5106805;27;41725;-73
2024/01/29 10:16:43;;;;;;;5.95;2.90;;;;;;;;;;5098285;27;40547;-70
2024/01/29 10:19:12;;;;;;;9.32;3.50;;;;;;;;;;5102155;28;43267;-70
2024/01/29 10:21:43;;;;;;;7.30;3.33;;;;;;;;;;5098124;27;41883;-70
2024/01/29 10:24:13;;;;;;;4.55;3.30;;;;;;;;;;5099168;27;42774;-70
2024/01/29 10:26:40;;;;;;;6.72;2.78;;;;;;;;;;5099432;27;41685;-70
2024/01/29 10:29:10;;;;;;;8.32;3.10;;;;;;;;;;5098969;27;40054;-70
2024/01/29 10:31:38;;;;;;;6.88;3.58;;;;;;;;;;5094920;27;41572;-70
2024/01/29 10:34:06;;;;;;;5.65;3.28;;;;;;;;;;5101311;27;42074;-69
2024/01/29 10:36:34;;;;;;;7.55;3.30;;;;;;;;;;5101737;28;41262;-70
2024/01/29 10:39:03;;;;;;;8.50;2.78;;;;;;;;;;5100658;27;41165;-69
2024/01/29 10:41:32;;;;;;;8.40;2.75;;;;;;;;;;5104615;27;42113;-69
2024/01/29 10:44:00;;;;;;;10.30;3.05;;;;;;;;;;5096167;28;39823;-66
2024/01/29 10:46:30;;;;;;;10.15;3.42;;;;;;;;;;5106328;27;42104;-72
2024/01/29 10:48:58;;;;;;;5.97;3.35;;;;;;;;;;5098646;27;40366;-71
2024/01/29 10:51:26;;;;;;;5.03;3.38;;;;;;;;;;5092054;27;42105;-72
2024/01/29 10:53:54;;;;;;;7.68;3.38;;;;;;;;;;5104165;27;42211;-74
2024/01/29 10:56:22;;;;;;;11.20;4.53;;;;;;;;;;5105543;27;40305;-73
2024/01/29 10:58:53;;;;;;;5.18;3.90;;;;;;;;;;5106416;27;41012;-70
2024/01/29 11:01:21;;;;;;;7.05;3.40;;;;;;;;;;5105233;27;41959;-72
2024/01/29 11:03:52;;;;;;;6.68;4.57;;;;;;;;;;5107505;27;20428;-72
2024/01/29 11:06:21;;;;;;;9.43;4.60;;;;;;;;;;5107298;27;41587;-73
2024/01/29 11:08:49;;;;;;;8.82;4.13;;;;;;;;;;5105918;27;40187;-72
2024/01/29 11:11:18;;;;;;;8.07;5.88;;;;;;;;;;5106520;27;42642;-72
2024/01/29 11:13:46;;;;;;;12.60;5.10;;;;;;;;;;5100671;27;43002;-73
2024/01/29 11:16:14;;;;;;;10.38;9.25;;;;;;;;;;5105153;27;40919;-72
2024/01/29 11:18:42;;;;;;;8.65;7.75;;;;;;;;;;5094671;27;41647;-69
2024/01/29 11:21:14;;;;;;;11.23;8.65;;;;;;;;;;5103443;28;42110;-70
2024/01/29 11:23:43;;;;;;;14.10;8.25;;;;;;;;;;5105814;27;40294;-69
2024/01/29 11:26:12;;;;;;;10.55;7.45;;;;;;;;;;5106384;27;41462;-70
2024/01/29 11:28:39;;;;;;;9.73;7.45;;;;;;;;;;5098997;27;42433;-69
2024/01/29 11:31:10;;;;;;;9.30;6.75;;;;;;;;;;5089915;27;42347;-70
2024/01/29 11:33:38;;;;;;;8.45;6.72;;;;;;;;;;5106178;27;42043;-71
2024/01/29 11:36:12;;;;;;;7.40;6.55;;;;;;;;;;5102750;27;40397;-71
2024/01/29 11:38:41;;;;;;;8.25;6.30;;;;;;;;;;5092500;28;41196;-74
2024/01/29 11:41:09;;;;;;;9.45;6.28;;;;;;;;;;5105636;27;43078;-74
2024/01/29 11:43:37;;;;;;;9.35;6.38;;;;;;;;;;5105914;27;41232;-79
2024/01/29 11:46:07;;;;;;;8.90;5.88;;;;;;;;;;5106289;27;41269;-71
2024/01/29 11:48:36;;;;;;;13.88;6.25;;;;;;;;;;5106583;27;43169;-72
2024/01/29 11:51:04;;;;;;;8.07;5.82;;;;;;;;;;5104956;27;42501;-71
2024/01/29 11:53:32;;;;;;;7.38;5.40;;;;;;;;;;5104858;27;42560;-71
2024/01/29 11:56:02;;;;;;;13.10;5.75;;;;;;;;;;5109646;27;41044;-70
2024/01/29 11:58:30;;;;;;;10.95;5.40;;;;;;;;;;5108605;27;41689;-69
2024/01/29 12:00:58;;;;;;;8.98;5.00;;;;;;;;;;5103718;27;41874;-72
2024/01/29 12:03:31;;;;;;;7.63;5.50;;;;;;;;;;5095207;28;40476;-73
2024/01/29 12:06:00;;;;;;;9.05;5.70;;;;;;;;;;5099609;28;41471;-73
2024/01/29 12:08:28;;;;;;;7.72;5.35;;;;;;;;;;5103252;27;41781;-73
2024/01/29 12:10:58;;;;;;;9.05;5.25;;;;;;;;;;5098613;28;40688;-72
2024/01/29 12:13:27;;;;;;;9.35;5.43;;;;;;;;;;5109676;27;42522;-70
2024/01/29 12:15:56;;;;;;;7.38;4.85;;;;;;;;;;5108832;27;41339;-71
2024/01/29 12:18:25;;;;;;;7.30;5.50;;;;;;;;;;5108372;27;41914;-69
2024/01/29 12:20:53;;;;;;;7.28;4.45;;;;;;;;;;5095264;27;42350;-69
2024/01/29 12:23:22;;;;;;;9.30;5.55;;;;;;;;;;5101241;27;40110;-69
2024/01/29 12:25:53;;;;;;;8.07;4.60;;;;;;;;;;5101341;28;41574;-69
2024/01/29 12:28:23;;;;;;;11.40;5.20;;;;;;;;;;5109483;27;42163;-69
2024/01/29 12:30:56;;;;;;;9.32;4.93;;;;;;;;;;5109184;27;40440;-70
2024/01/29 12:33:28;;;;;;;6.82;4.28;;;;;;;;;;5108384;27;41659;-72
2024/01/29 12:35:57;;;;;;;7.63;4.03;;;;;;;;;;5109061;27;41411;-71
2024/01/29 12:38:25;;;;;;;14.65;5.03;;;;;;;;;;5105956;27;42169;-75
2024/01/29 12:40:55;;;;;;;10.65;5.43;;;;;;;;;;5099396;27;42752;-68
2024/01/29 12:43:26;;;;;;;10.38;6.35;;;;;;;;;;5108332;27;40955;-69
2024/01/29 12:46:04;;;;;;;7.15;4.75;;;;;;;;;;5108875;27;41386;-68
2024/01/29 12:48:32;;;;;;;6.13;4.82;;;;;;;;;;5095862;27;42392;-68
2024/01/29 12:51:00;;;;;;;8.30;5.15;;;;;;;;;;5108253;27;40542;-69
2024/01/29 12:53:28;;;;;;;7.90;4.70;;;;;;;;;;5107840;27;41237;-71
2024/01/29 12:55:56;;;;;;;7.63;5.35;;;;;;;;;;5109043;27;42679;-74
2024/01/29 12:58:25;;;;;;;7.25;4.82;;;;;;;;;;5108847;27;41517;-73
2024/01/29 13:00:53;;;;;;;6.95;4.68;;;;;;;;;;5107302;27;42091;-73
2024/01/29 13:03:22;;;;;;;7.30;5.53;;;;;;;;;;5109214;27;41335;-74
2024/01/29 13:05:52;;;;;;;7.53;4.95;;;;;;;;;;5107982;27;41701;-69
2024/01/29 13:08:23;;;;;;;6.60;4.82;;;;;;;;;;5107306;27;42094;-68
2024/01/29 13:10:51;;;;;;;6.50;3.95;;;;;;;;;;5108372;27;41812;-69
2024/01/29 13:13:19;;;;;;;7.65;5.32;;;;;;;;;;5109155;27;41307;-69
2024/01/29 13:15:47;;;;;;;6.15;4.90;;;;;;;;;;5107416;27;42660;-68
2024/01/29 13:18:15;;;;;;;5.78;4.40;;;;;;;;;;5101630;27;41306;-69
2024/01/29 13:20:44;;;;;;;8.73;4.32;;;;;;;;;;5093031;28;43093;-69
2024/01/29 13:23:12;;;;;;;7.45;5.47;;;;;;;;;;5108184;27;39764;-68
2024/01/29 13:25:40;;;;;;;6.07;4.32;;;;;;;;;;5108473;27;41544;-68
2024/01/29 13:28:08;;;;;;;7.47;4.78;;;;;;;;;;5107257;27;41481;-69
2024/01/29 13:30:37;;;;;;;8.43;5.32;;;;;;;;;;5108489;27;41004;-69
2024/01/29 13:33:06;;;;;;;6.40;4.65;;;;;;;;;;5107445;27;42161;-68
2024/01/29 13:35:35;;;;;;;6.35;4.70;;;;;;;;;;5102635;27;41818;-76
2024/01/29 13:38:04;;;;;;;8.57;6.15;;;;;;;;;;5099435;27;40725;-70
2024/01/29 13:40:32;;;;;;;9.90;5.65;;;;;;;;;;5108938;27;42596;-70
2024/01/29 13:43:02;;;;;;;7.47;4.50;;;;;;;;;;5106980;27;40478;-70
2024/01/29 13:45:30;;;;;;;6.60;4.90;;;;;;;;;;5106379;27;41351;-65
2024/01/29 13:47:58;;;;;;;5.45;4.50;;;;;;;;;;5107651;27;42083;-64
2024/01/29 13:50:27;;;;;;;7.72;4.88;;;;;;;;;;5105905;27;41580;-67
2024/01/29 13:52:55;;;;;;;8.75;5.22;;;;;;;;;;5103547;27;42697;-67
2024/01/29 13:55:25;;;;;;;8.93;4.45;;;;;;;;;;5102592;27;42075;-66
2024/01/29 13:57:53;;;;;;;5.82;4.10;;;;;;;;;;5105770;27;40309;-67
2024/01/29 14:00:21;;;;;;;8.20;4.45;;;;;;;;;;5107705;27;42071;-69
2024/01/29 14:02:50;;;;;;;16.85;4.75;;;;;;;;;;5105305;27;41341;-69
2024/01/29 14:05:19;;;;;;;9.40;4.82;;;;;;;;;;5106918;27;41593;-70
2024/01/29 14:07:46;;;;;;;8.73;4.40;;;;;;;;;;5095861;27;41808;-64
2024/01/29 14:10:14;;;;;;;11.88;4.50;;;;;;;;;;5105716;28;40284;-64
2024/01/29 14:12:44;;;;;;;10.85;3.88;;;;;;;;;;5107135;27;41303;-64
2024/01/29 14:15:12;;;;;;;12.68;5.20;;;;;;;;;;5107772;27;43262;-64
2024/01/29 14:17:40;;;;;;;5.68;4.50;;;;;;;;;;5104814;27;40968;-64
2024/01/29 14:20:09;;;;;;;6.38;4.38;;;;;;;;;;5107156;27;41442;-65
2024/01/29 14:22:37;;;;;;;11.27;4.68;;;;;;;;;;5107587;27;42161;-64
2024/01/29 14:25:05;;;;;;;6.78;4.18;;;;;;;;;;5106515;27;42216;-64
2024/01/29 14:27:34;;;;;;;5.60;4.28;;;;;;;;;;5092910;27;42627;-65
2024/01/29 14:30:04;;;;;;;5.63;4.40;;;;;;;;;;5107305;27;39841;-64
2024/01/29 14:32:32;;;;;;;6.68;4.50;;;;;;;;;;5100052;28;42724;-65
2024/01/29 14:35:00;;;;;;;8.45;5.45;;;;;;;;;;5100534;27;41478;-65
2024/01/29 14:37:29;;;;;;;6.18;4.28;;;;;;;;;;5102033;28;39785;-65
2024/01/29 14:39:56;;;;;;;5.82;3.90;;;;;;;;;;5105774;27;41415;-65
2024/01/29 14:42:27;;;;;;;8.20;3.97;;;;;;;;;;5107131;27;41703;-65
2024/01/29 14:44:56;;;;;;;6.47;4.45;;;;;;;;;;5106720;27;39902;-72
2024/01/29 14:47:25;;;;;;;7.03;4.28;;;;;;;;;;5097366;27;43076;-69
2024/01/29 14:49:55;;;;;;;9.15;4.35;;;;;;;;;;5099937;27;41088;-69